createdAt,value
2022-09-01T00:01:49.838Z,39.30
2022-09-01T00:04:21.465Z,39.42
2022-09-01T00:06:50.212Z,39.49
2022-09-01T00:09:20.523Z,39.08
2022-09-01T00:11:52.996Z,38.96
2022-09-01T00:14:30.335Z,39.26
2022-09-01T00:16:59.693Z,39.11
2022-09-01T00:19:29.559Z,39.39
2022-09-01T00:21:58.079Z,39.32
2022-09-01T00:24:26.614Z,39.39
2022-09-01T00:26:55.181Z,39.36
2022-09-01T00:29:24.994Z,39.55
2022-09-01T00:31:52.874Z,39.48
2022-09-01T00:34:21.442Z,39.57
2022-09-01T00:36:50.544Z,39.27
2022-09-01T00:39:18.283Z,39.43
2022-09-01T00:41:47.292Z,39.61
2022-09-01T00:44:18.435Z,39.54
2022-09-01T00:46:54.886Z,39.50
2022-09-01T00:49:29.714Z,39.64
2022-09-01T00:52:07.995Z,39.53
2022-09-01T00:54:37.949Z,39.61
2022-09-01T00:57:06.974Z,39.64
2022-09-01T00:59:37.270Z,39.55
2022-09-01T01:02:05.059Z,39.67
2022-09-01T01:04:32.793Z,39.79
2022-09-01T01:07:03.059Z,39.70
2022-09-01T01:09:37.117Z,39.83
2022-09-01T01:12:07.095Z,39.85
2022-09-01T01:14:40.053Z,39.81
2022-09-01T01:17:08.388Z,39.72
2022-09-01T01:20:00.626Z,39.97
2022-09-01T01:22:58.414Z,39.93
2022-09-01T01:25:28.038Z,40.01
2022-09-01T01:28:05.952Z,40.00
2022-09-01T01:30:36.898Z,40.08
2022-09-01T01:33:05.705Z,40.04
2022-09-01T01:35:34.884Z,40.04
2022-09-01T01:38:07.965Z,40.10
2022-09-01T01:40:37.817Z,40.01
2022-09-01T01:43:06.654Z,40.19
2022-09-01T01:45:34.689Z,40.21
2022-09-01T01:48:08.664Z,40.12
2022-09-01T01:50:38.369Z,40.23
2022-09-01T01:53:11.403Z,40.19
2022-09-01T01:55:43.627Z,40.40
2022-09-01T01:58:12.526Z,40.27
2022-09-01T02:00:42.923Z,40.22
2022-09-01T02:03:12.799Z,40.30
2022-09-01T02:05:41.258Z,40.33
2022-09-01T02:08:11.805Z,40.38
2022-09-01T02:10:45.030Z,40.57
2022-09-01T02:13:16.820Z,40.51
2022-09-01T02:15:47.174Z,40.47
2022-09-01T02:18:27.924Z,40.63
2022-09-01T02:20:58.807Z,40.52
2022-09-01T02:23:26.705Z,40.55
2022-09-01T02:26:15.521Z,40.52
2022-09-01T02:28:45.397Z,40.47
2022-09-01T02:31:13.848Z,40.61
2022-09-01T02:33:44.116Z,40.70
2022-09-01T02:36:15.287Z,40.74
2022-09-01T02:38:46.662Z,40.81
2022-09-01T02:41:23.732Z,40.68
2022-09-01T02:43:51.818Z,40.73
2022-09-01T02:46:20.332Z,40.81
2022-09-01T02:48:51.528Z,40.94
2022-09-01T02:51:25.366Z,40.95
2022-09-01T02:53:54.029Z,40.87
2022-09-01T02:56:27.392Z,40.98
2022-09-01T02:58:55.693Z,41.00
2022-09-01T03:01:31.109Z,40.93
2022-09-01T03:04:00.667Z,40.93
2022-09-01T03:06:31.455Z,41.04
2022-09-01T03:09:00.646Z,41.09
2022-09-01T03:11:31.592Z,41.17
2022-09-01T03:13:59.833Z,41.06
2022-09-01T03:16:27.706Z,41.16
2022-09-01T03:18:55.434Z,41.27
2022-09-01T03:21:23.627Z,41.26
2022-09-01T03:23:52.763Z,41.20
2022-09-01T03:26:22.434Z,41.11
2022-09-01T03:28:52.587Z,41.32
2022-09-01T03:31:21.162Z,41.25
2022-09-01T03:33:51.048Z,41.35
2022-09-01T03:36:20.152Z,41.45
2022-09-01T03:38:49.652Z,41.13
2022-09-01T03:41:19.373Z,41.45
2022-09-01T03:43:48.288Z,41.35
2022-09-01T03:46:21.784Z,41.52
2022-09-01T03:48:51.694Z,41.54
2022-09-01T03:51:22.880Z,41.50
2022-09-01T03:53:54.467Z,41.61
2022-09-01T03:56:24.646Z,41.48
2022-09-01T03:58:52.902Z,41.64
2022-09-01T04:01:22.178Z,41.68
2022-09-01T04:03:52.210Z,41.72
2022-09-01T04:06:20.653Z,41.64
2022-09-01T04:08:48.838Z,41.85
2022-09-01T04:11:20.457Z,41.79
2022-09-01T04:13:48.209Z,41.75
2022-09-01T04:16:41.517Z,41.86
2022-09-01T04:19:20.039Z,41.79
2022-09-01T04:21:50.239Z,41.87
2022-09-01T04:24:19.040Z,41.77
2022-09-01T04:26:49.657Z,41.97
2022-09-01T04:29:19.368Z,41.92
2022-09-01T04:31:53.631Z,42.07
2022-09-01T04:34:22.407Z,42.09
2022-09-01T04:36:54.599Z,42.08
2022-09-01T04:39:22.994Z,42.22
2022-09-01T04:41:51.198Z,42.21
2022-09-01T04:44:20.115Z,42.13
2022-09-01T04:46:50.812Z,42.27
2022-09-01T04:49:22.120Z,42.26
2022-09-01T04:51:53.980Z,42.16
2022-09-01T04:54:23.358Z,42.25
2022-09-01T04:56:52.406Z,42.33
2022-09-01T04:59:22.079Z,42.25
2022-09-01T05:01:54.319Z,42.31
2022-09-01T05:04:24.450Z,42.43
2022-09-01T05:06:55.974Z,42.45
2022-09-01T05:09:25.158Z,42.54
2022-09-01T05:11:53.146Z,42.36
2022-09-01T05:14:23.001Z,42.43
2022-09-01T05:16:53.973Z,42.45
2022-09-01T05:19:24.839Z,42.45
2022-09-01T05:21:58.179Z,42.59
2022-09-01T05:24:30.175Z,42.65
2022-09-01T05:26:58.978Z,42.47
2022-09-01T05:29:27.776Z,42.52
2022-09-01T05:31:57.475Z,42.75
2022-09-01T05:34:27.454Z,42.61
2022-09-01T05:36:58.118Z,42.68
2022-09-01T05:39:26.687Z,42.72
2022-09-01T05:41:54.684Z,42.66
2022-09-01T05:44:23.546Z,42.91
2022-09-01T05:46:52.825Z,42.87
2022-09-01T05:49:21.898Z,42.81
2022-09-01T05:51:52.252Z,42.76
2022-09-01T05:54:23.207Z,42.98
2022-09-01T05:56:53.523Z,42.78
2022-09-01T05:59:24.864Z,42.72
2022-09-01T06:01:54.221Z,42.95
2022-09-01T06:04:25.516Z,42.81
2022-09-01T06:07:07.036Z,42.88
2022-09-01T06:09:39.199Z,42.98
2022-09-01T06:12:07.251Z,42.86
2022-09-01T06:14:35.099Z,43.05
2022-09-01T06:17:03.290Z,42.90
2022-09-01T06:19:37.253Z,43.05
2022-09-01T06:22:05.522Z,42.91
2022-09-01T06:24:33.270Z,42.89
2022-09-01T06:27:01.142Z,42.92
2022-09-01T06:29:31.285Z,42.97
2022-09-01T06:32:02.376Z,42.85
2022-09-01T06:34:30.308Z,42.95
2022-09-01T06:36:59.826Z,42.92
2022-09-01T06:39:27.513Z,42.90
2022-09-01T06:41:56.068Z,42.92
2022-09-01T06:44:24.607Z,42.85
2022-09-01T06:46:53.514Z,42.76
2022-09-01T06:49:23.559Z,43.00
2022-09-01T06:51:51.821Z,42.79
2022-09-01T06:54:21.662Z,43.07
2022-09-01T06:56:51.505Z,43.00
2022-09-01T06:59:20.822Z,43.04
2022-09-01T07:01:51.376Z,43.21
2022-09-01T07:04:22.106Z,43.14
2022-09-01T07:07:53.057Z,43.17
2022-09-01T07:12:32.009Z,43.12
2022-09-01T07:17:50.264Z,43.27
2022-09-01T07:20:26.806Z,43.31
2022-09-01T07:23:04.137Z,43.18
2022-09-01T07:26:02.065Z,43.28
2022-09-01T07:28:39.907Z,43.26
2022-09-01T07:39:53.407Z,43.53
2022-09-01T07:45:29.135Z,43.62
2022-09-01T07:48:00.099Z,43.78
2022-09-01T07:53:18.362Z,43.94
2022-09-01T07:55:46.769Z,43.83
2022-09-01T07:58:15.815Z,44.08
2022-09-01T08:00:47.307Z,44.12
2022-09-01T08:03:15.505Z,44.32
2022-09-01T08:05:43.517Z,44.09
2022-09-01T08:08:19.153Z,44.41
2022-09-01T08:10:49.437Z,44.36
2022-09-01T08:13:22.285Z,44.52
2022-09-01T08:18:53.339Z,44.53
2022-09-01T08:21:23.462Z,44.46
2022-09-01T08:23:51.771Z,44.70
2022-09-01T08:26:21.953Z,44.73
2022-09-01T08:28:58.467Z,44.82
2022-09-01T08:31:30.767Z,44.90
2022-09-01T08:34:00.063Z,44.93
2022-09-01T08:36:27.856Z,45.12
2022-09-01T08:38:55.561Z,45.15
2022-09-01T08:41:37.180Z,45.17
2022-09-01T08:44:15.398Z,45.40
2022-09-01T08:46:44.986Z,45.59
2022-09-01T08:49:25.311Z,45.63
2022-09-01T08:52:00.882Z,45.61
2022-09-01T08:54:38.052Z,45.58
2022-09-01T08:57:09.888Z,45.89
2022-09-01T08:59:39.245Z,45.94
2022-09-01T09:02:21.464Z,46.04
2022-09-01T09:05:00.816Z,46.17
2022-09-01T09:07:44.371Z,46.14
2022-09-01T09:10:18.922Z,46.09
2022-09-01T09:13:06.522Z,46.32
2022-09-01T09:15:43.642Z,46.38
2022-09-01T09:18:36.027Z,46.18
2022-09-01T09:21:13.043Z,46.32
2022-09-01T09:23:45.255Z,46.42
2022-09-01T09:26:16.613Z,46.42
2022-09-01T09:28:49.965Z,46.34
2022-09-01T09:31:30.848Z,46.40
2022-09-01T09:33:59.781Z,46.38
2022-09-01T09:36:33.852Z,46.16
2022-09-01T09:39:10.866Z,46.01
2022-09-01T09:41:39.961Z,46.11
2022-09-01T09:44:18.811Z,46.27
2022-09-01T09:46:48.872Z,46.38
2022-09-01T09:49:34.627Z,46.28
2022-09-01T09:52:17.747Z,46.21
2022-09-01T09:55:01.546Z,46.00
2022-09-01T09:57:31.284Z,46.18
2022-09-01T10:00:03.493Z,45.77
2022-09-01T10:02:36.087Z,45.59
2022-09-01T10:05:25.185Z,45.63
2022-09-01T10:07:53.923Z,45.25
2022-09-01T10:10:37.693Z,45.43
2022-09-01T10:13:09.193Z,45.11
2022-09-01T10:15:38.046Z,44.89
2022-09-01T10:18:20.505Z,44.67
2022-09-01T10:20:55.306Z,44.92
2022-09-01T10:23:27.252Z,44.67
2022-09-01T10:26:05.917Z,44.25
2022-09-01T10:28:35.776Z,44.25
2022-09-01T10:31:05.299Z,44.20
2022-09-01T10:33:37.903Z,44.23
2022-09-01T10:36:08.375Z,44.37
2022-09-01T10:38:36.449Z,44.28
2022-09-01T10:41:14.932Z,43.98
2022-09-01T10:43:45.067Z,43.50
2022-09-01T10:46:50.536Z,43.67
2022-09-01T10:50:01.462Z,43.87
2022-09-01T10:53:02.179Z,43.56
2022-09-01T10:55:41.315Z,43.52
2022-09-01T11:02:35.237Z,43.15
2022-09-01T11:05:18.891Z,42.83
2022-09-01T11:08:14.660Z,42.72
2022-09-01T11:10:44.556Z,43.20
2022-09-01T11:13:32.907Z,43.06
2022-09-01T11:19:38.877Z,42.74
2022-09-01T11:22:29.442Z,42.60
2022-09-01T11:25:13.840Z,42.04
2022-09-01T11:28:02.466Z,42.17
2022-09-01T11:30:50.568Z,40.77
2022-09-01T11:33:43.322Z,41.17
2022-09-01T11:36:20.420Z,41.19
2022-09-01T11:38:51.485Z,40.81
2022-09-01T11:41:28.974Z,40.16
2022-09-01T11:43:59.290Z,39.59
2022-09-01T11:46:30.227Z,40.03
2022-09-01T11:48:59.045Z,40.05
2022-09-01T11:51:26.953Z,40.38
2022-09-01T11:54:01.592Z,40.10
2022-09-01T11:56:30.181Z,40.12
2022-09-01T11:58:59.247Z,38.89
2022-09-01T12:01:34.636Z,39.81
2022-09-01T12:04:22.274Z,39.11
2022-09-01T12:06:55.305Z,39.36
2022-09-01T12:09:23.509Z,39.06
2022-09-01T12:11:52.749Z,38.15
2022-09-01T12:14:23.894Z,36.61
2022-09-01T12:17:00.144Z,37.05
2022-09-01T12:19:31.270Z,37.61
2022-09-01T12:22:03.112Z,38.08
2022-09-01T12:24:35.019Z,38.82
2022-09-01T12:27:03.232Z,38.54
2022-09-01T12:29:33.219Z,38.39
2022-09-01T12:32:02.406Z,38.63
2022-09-01T12:34:40.235Z,38.57
2022-09-01T12:37:23.076Z,40.76
2022-09-01T12:39:52.821Z,38.11
2022-09-01T12:42:27.216Z,38.59
2022-09-01T12:44:58.531Z,39.60
2022-09-01T12:47:50.387Z,37.93
2022-09-01T12:50:44.785Z,37.27
2022-09-01T12:53:19.707Z,36.50
2022-09-01T12:55:59.929Z,37.18
2022-09-01T12:58:30.490Z,35.54
2022-09-01T13:01:03.935Z,35.95
2022-09-01T13:03:34.513Z,34.83
2022-09-01T13:06:04.596Z,34.41
2022-09-01T13:08:34.907Z,34.78
2022-09-01T13:11:05.745Z,33.43
2022-09-01T13:13:35.300Z,33.45
2022-09-01T13:16:08.524Z,33.42
2022-09-01T13:19:10.654Z,34.53
2022-09-01T13:21:24.489Z,34.15
2022-09-01T13:23:52.606Z,33.95
2022-09-01T13:26:20.343Z,33.03
2022-09-01T13:28:48.043Z,34.36
2022-09-01T13:31:32.889Z,34.17
2022-09-01T13:34:10.898Z,34.75
2022-09-01T13:36:52.492Z,35.33
2022-09-01T13:39:21.074Z,34.91
2022-09-01T13:41:49.304Z,34.58
2022-09-01T13:44:18.454Z,33.66
2022-09-01T13:49:45.019Z,34.29
2022-09-01T13:52:23.525Z,34.45
2022-09-01T13:54:51.302Z,34.38
2022-09-01T13:57:19.005Z,33.80
2022-09-01T13:59:46.760Z,33.75
2022-09-01T14:02:16.144Z,33.65
2022-09-01T14:04:44.248Z,35.81
2022-09-01T14:07:12.006Z,34.43
2022-09-01T14:09:39.753Z,33.13
2022-09-01T14:12:07.730Z,33.09
2022-09-01T14:17:24.716Z,33.81
2022-09-01T14:19:52.422Z,33.04
2022-09-01T14:22:20.194Z,32.25
2022-09-01T14:24:47.926Z,32.51
2022-09-01T14:27:16.006Z,32.97
2022-09-01T14:32:10.328Z,32.85
2022-09-01T14:34:39.379Z,32.71
2022-09-01T14:37:07.308Z,33.21
2022-09-01T14:39:35.094Z,33.02
2022-09-01T14:42:06.804Z,32.62
2022-09-01T14:44:37.694Z,33.62
2022-09-01T14:47:06.707Z,33.36
2022-09-01T14:49:41.634Z,33.15
2022-09-01T14:52:11.241Z,34.11
2022-09-01T14:54:42.054Z,34.80
2022-09-01T14:59:57.818Z,36.26
2022-09-01T15:02:26.083Z,35.14
2022-09-01T15:04:55.136Z,35.24
2022-09-01T15:07:22.908Z,34.60
2022-09-01T15:09:50.802Z,35.17
2022-09-01T15:12:19.331Z,35.39
2022-09-01T15:14:47.058Z,36.13
2022-09-01T15:17:14.822Z,36.49
2022-09-01T15:19:42.678Z,35.28
2022-09-01T15:22:14.488Z,33.65
2022-09-01T15:24:42.326Z,33.02
2022-09-01T15:27:11.417Z,33.82
2022-09-01T15:29:46.233Z,34.35
2022-09-01T15:32:25.671Z,35.17
2022-09-01T15:34:55.960Z,35.74
2022-09-01T15:37:25.259Z,35.71
2022-09-01T15:39:53.012Z,35.57
2022-09-01T15:42:21.843Z,35.77
2022-09-01T15:44:49.590Z,35.60
2022-09-01T15:47:17.552Z,35.13
2022-09-01T15:49:45.286Z,34.37
2022-09-01T15:52:12.995Z,34.76
2022-09-01T15:54:41.979Z,34.76
2022-09-01T15:57:09.661Z,34.66
2022-09-01T15:59:40.073Z,34.67
2022-09-01T16:02:08.475Z,33.87
2022-09-01T16:04:36.335Z,33.85
2022-09-01T16:07:04.650Z,34.24
2022-09-01T16:09:32.585Z,34.89
2022-09-01T16:12:01.621Z,34.44
2022-09-01T16:14:32.045Z,34.25
2022-09-01T16:17:04.776Z,34.43
2022-09-01T16:19:49.010Z,34.41
2022-09-01T16:22:23.614Z,34.40
2022-09-01T16:24:54.108Z,33.95
2022-09-01T16:27:27.705Z,34.31
2022-09-01T16:29:57.750Z,35.43
2022-09-01T16:32:27.094Z,35.43
2022-09-01T16:34:54.802Z,35.73
2022-09-01T16:37:41.545Z,35.01
2022-09-01T16:40:13.930Z,33.81
2022-09-01T16:42:57.946Z,34.95
2022-09-01T16:45:42.283Z,34.91
2022-09-01T16:48:19.023Z,34.76
2022-09-01T16:50:55.569Z,34.76
2022-09-01T16:53:44.835Z,34.71
2022-09-01T16:56:15.716Z,35.54
2022-09-01T16:58:51.936Z,35.67
2022-09-01T17:01:25.148Z,35.49
2022-09-01T17:03:59.736Z,35.63
2022-09-01T17:06:32.104Z,35.66
2022-09-01T17:09:08.217Z,35.88
2022-09-01T17:11:49.115Z,36.11
2022-09-01T17:14:25.498Z,36.13
2022-09-01T17:16:57.127Z,36.16
2022-09-01T17:19:28.318Z,35.95
2022-09-01T17:22:03.629Z,36.14
2022-09-01T17:24:36.771Z,35.88
2022-09-01T17:27:12.590Z,35.98
2022-09-01T17:29:45.031Z,36.06
2022-09-01T17:32:30.900Z,36.06
2022-09-01T17:35:13.214Z,36.13
2022-09-01T17:37:50.892Z,36.10
2022-09-01T17:40:23.206Z,36.04
2022-09-01T17:42:58.024Z,35.93
2022-09-01T17:45:33.261Z,35.94
2022-09-01T17:48:09.039Z,35.78
2022-09-01T17:50:50.660Z,36.13
2022-09-01T17:53:33.581Z,35.69
2022-09-01T17:56:04.666Z,36.13
2022-09-01T17:58:46.130Z,35.80
2022-09-01T18:01:25.268Z,36.15
2022-09-01T18:04:15.146Z,36.09
2022-09-01T18:06:52.458Z,35.94
2022-09-01T18:09:25.457Z,36.11
2022-09-01T18:11:58.919Z,36.00
2022-09-01T18:14:35.359Z,35.83
2022-09-01T18:17:11.302Z,36.18
2022-09-01T18:19:41.189Z,35.94
2022-09-01T18:22:15.415Z,35.90
2022-09-01T18:24:51.257Z,36.17
2022-09-01T18:27:19.252Z,36.12
2022-09-01T18:29:52.189Z,36.19
2022-09-01T18:32:34.135Z,35.78
2022-09-01T18:35:24.091Z,36.39
2022-09-01T18:38:07.506Z,36.17
2022-09-01T18:40:44.122Z,36.07
2022-09-01T18:43:19.204Z,36.35
2022-09-01T18:45:54.335Z,36.40
2022-09-01T18:48:38.604Z,36.24
2022-09-01T18:51:16.566Z,36.05
2022-09-01T18:53:49.339Z,36.08
2022-09-01T18:56:37.466Z,36.20
2022-09-01T18:59:21.829Z,36.28
2022-09-01T19:01:55.374Z,36.44
2022-09-01T19:04:31.425Z,36.28
2022-09-01T19:07:08.976Z,36.19
2022-09-01T19:09:43.663Z,36.62
2022-09-01T19:12:21.621Z,36.47
2022-09-01T19:14:59.383Z,36.17
2022-09-01T19:17:52.463Z,36.46
2022-09-01T19:20:26.721Z,36.46
2022-09-01T19:23:01.761Z,35.96
2022-09-01T19:25:37.462Z,36.12
2022-09-01T19:28:15.083Z,36.31
2022-09-01T19:30:47.979Z,35.91
2022-09-01T19:33:20.115Z,36.03
2022-09-01T19:35:50.490Z,36.28
2022-09-01T19:38:27.372Z,35.92
2022-09-01T19:41:02.278Z,36.31
2022-09-01T19:43:37.155Z,35.75
2022-09-01T19:46:18.500Z,35.83
2022-09-01T19:48:51.710Z,36.23
2022-09-01T19:51:25.616Z,35.92
2022-09-01T19:54:01.228Z,36.21
2022-09-01T19:56:35.365Z,35.83
2022-09-01T19:59:13.559Z,35.46
2022-09-01T20:01:47.211Z,36.12
2022-09-01T20:04:24.696Z,36.01
2022-09-01T20:06:59.126Z,36.02
2022-09-01T20:09:36.642Z,36.13
2022-09-01T20:12:14.420Z,36.11
2022-09-01T20:15:04.794Z,35.84
2022-09-01T20:17:38.699Z,36.05
2022-09-01T20:20:09.560Z,35.59
2022-09-01T20:22:46.319Z,35.64
2022-09-01T20:25:17.904Z,35.73
2022-09-01T20:27:56.474Z,36.08
2022-09-01T20:30:28.101Z,35.91
2022-09-01T20:33:02.364Z,36.21
2022-09-01T20:35:39.748Z,35.97
2022-09-01T20:38:29.713Z,35.91
2022-09-01T20:40:57.881Z,35.91
2022-09-01T20:43:31.243Z,35.68
2022-09-01T20:45:59.187Z,35.62
2022-09-01T20:48:30.397Z,36.24
2022-09-01T20:51:03.618Z,36.17
2022-09-01T20:53:54.213Z,36.16
2022-09-01T20:56:30.222Z,36.13
2022-09-01T20:59:01.318Z,35.98
2022-09-01T21:01:38.077Z,36.23
2022-09-01T21:04:14.497Z,36.07
2022-09-01T21:09:14.840Z,36.08
2022-09-01T21:11:48.738Z,36.20
2022-09-01T21:14:34.671Z,35.75
2022-09-01T21:17:13.559Z,36.19
2022-09-01T21:19:49.792Z,36.11
2022-09-01T21:22:22.165Z,35.99
2022-09-01T21:24:51.630Z,35.88
2022-09-01T21:27:22.722Z,35.52
2022-09-01T21:29:56.614Z,35.67
2022-09-01T21:32:24.291Z,35.64
2022-09-01T21:34:53.065Z,35.78
2022-09-01T21:37:23.631Z,35.94
2022-09-01T21:39:53.910Z,35.91
2022-09-01T21:42:23.513Z,35.58
2022-09-01T21:44:51.966Z,35.91
2022-09-01T21:47:22.624Z,35.52
2022-09-01T21:49:50.330Z,36.02
2022-09-01T21:52:18.205Z,35.65
2022-09-01T21:54:46.119Z,36.01
2022-09-01T21:57:15.395Z,35.98
2022-09-01T21:59:43.139Z,35.93
2022-09-01T22:02:11.012Z,35.72
2022-09-01T22:04:39.783Z,35.77
2022-09-01T22:07:18.618Z,36.00
2022-09-01T22:09:47.411Z,36.32
2022-09-01T22:12:16.485Z,36.03
2022-09-01T22:14:44.162Z,36.39
2022-09-01T22:17:11.875Z,36.12
2022-09-01T22:19:39.578Z,36.39
2022-09-01T22:22:08.256Z,36.16
2022-09-01T22:24:35.926Z,36.09
2022-09-01T22:27:03.650Z,36.20
2022-09-01T22:29:32.732Z,36.12
2022-09-01T22:32:01.254Z,36.04
2022-09-01T22:34:28.925Z,36.03
2022-09-01T22:36:56.868Z,36.04
2022-09-01T22:39:25.192Z,36.27
2022-09-01T22:41:53.872Z,36.18
2022-09-01T22:44:21.705Z,36.20
2022-09-01T22:46:50.901Z,36.18
2022-09-01T22:49:18.574Z,36.27
2022-09-01T22:51:46.359Z,36.37
2022-09-01T22:54:14.415Z,36.26
2022-09-01T22:56:42.718Z,36.23
2022-09-01T22:59:13.429Z,36.44
2022-09-01T23:01:44.179Z,36.45
2022-09-01T23:04:14.471Z,36.39
2022-09-01T23:06:44.904Z,36.58
2022-09-01T23:09:13.480Z,36.71
2022-09-01T23:11:41.469Z,36.72
2022-09-01T23:14:09.224Z,36.53
2022-09-01T23:16:37.214Z,36.67
2022-09-01T23:19:06.091Z,36.72
2022-09-01T23:21:37.168Z,36.83
2022-09-01T23:24:06.566Z,36.73
2022-09-01T23:26:34.955Z,36.84
2022-09-01T23:29:03.287Z,36.86
2022-09-01T23:31:34.651Z,36.81
2022-09-01T23:34:02.771Z,36.90
2022-09-01T23:36:30.823Z,36.77
2022-09-01T23:39:00.592Z,36.99
2022-09-01T23:41:31.128Z,36.76
2022-09-01T23:44:01.329Z,36.83
2022-09-01T23:46:31.413Z,36.84
2022-09-01T23:48:59.683Z,37.03
2022-09-01T23:51:28.206Z,36.89
2022-09-01T23:53:55.926Z,36.83
2022-09-01T23:56:27.639Z,37.09
2022-09-01T23:58:55.568Z,36.91
